createdAt,value
2018-11-06T00:00:33.356Z,69.20
2018-11-06T00:03:12.471Z,69.30
2018-11-06T00:05:45.981Z,69.10
2018-11-06T00:08:19.841Z,69.30
2018-11-06T00:10:53.433Z,69.20
2018-11-06T00:13:26.872Z,69.10
2018-11-06T00:16:01.089Z,68.90
2018-11-06T00:21:48.337Z,68.70
2018-11-06T00:24:21.906Z,68.60
2018-11-06T00:26:55.592Z,68.60
2018-11-06T00:29:29.153Z,68.60
2018-11-06T00:32:02.749Z,68.40
2018-11-06T00:34:36.326Z,68.10
2018-11-06T00:37:09.851Z,68.50
2018-11-06T00:39:43.278Z,68.60
2018-11-06T00:42:16.890Z,68.60
2018-11-06T00:44:50.503Z,70.10
2018-11-06T00:47:24.039Z,69.70
2018-11-06T00:49:57.559Z,69.30
2018-11-06T00:52:31.147Z,69.40
2018-11-06T00:55:05.981Z,69.40
2018-11-06T00:57:41.320Z,69.60
2018-11-06T01:00:15.948Z,70.20
2018-11-06T01:02:49.393Z,70.30
2018-11-06T01:05:22.899Z,70.70
2018-11-06T01:07:56.360Z,71.00
2018-11-06T01:10:29.947Z,71.40
2018-11-06T01:13:03.905Z,71.60
2018-11-06T01:15:37.376Z,71.90
2018-11-06T01:18:10.846Z,72.00
2018-11-06T01:20:44.316Z,72.20
2018-11-06T01:23:17.892Z,72.10
2018-11-06T01:25:51.428Z,71.40
2018-11-06T01:28:25.103Z,72.30
2018-11-06T01:30:58.613Z,72.40
2018-11-06T01:33:32.166Z,72.40
2018-11-06T01:36:05.796Z,72.90
2018-11-06T01:38:39.222Z,73.50
2018-11-06T01:41:12.666Z,74.20
2018-11-06T01:43:46.217Z,74.30
2018-11-06T01:46:19.800Z,75.00
2018-11-06T01:48:53.376Z,74.90
2018-11-06T01:51:26.959Z,75.70
2018-11-06T01:54:00.736Z,75.60
2018-11-06T01:56:34.157Z,75.70
2018-11-06T01:59:07.624Z,76.40
2018-11-06T02:01:41.204Z,76.90
2018-11-06T02:04:14.776Z,77.50
2018-11-06T02:06:48.341Z,77.10
2018-11-06T02:09:21.816Z,77.00
2018-11-06T02:11:55.321Z,77.00
2018-11-06T02:14:28.980Z,77.20
2018-11-06T02:17:02.507Z,77.40
2018-11-06T02:19:36.062Z,77.00
2018-11-06T02:22:09.854Z,76.90
2018-11-06T02:24:43.162Z,76.80
2018-11-06T02:27:16.573Z,77.10
2018-11-06T02:29:50.113Z,77.00
2018-11-06T02:32:23.445Z,76.40
2018-11-06T02:34:56.945Z,76.40
2018-11-06T02:37:30.396Z,76.00
2018-11-06T02:40:04.137Z,76.50
2018-11-06T02:42:37.555Z,76.50
2018-11-06T02:45:12.048Z,76.40
2018-11-06T02:47:45.525Z,76.30
2018-11-06T02:50:19.061Z,76.10
2018-11-06T02:52:52.640Z,75.90
2018-11-06T02:55:25.923Z,75.60
2018-11-06T02:57:59.414Z,74.70
2018-11-06T03:00:32.793Z,74.20
2018-11-06T03:03:06.206Z,73.40
2018-11-06T03:05:39.786Z,73.10
2018-11-06T03:08:13.195Z,72.80
2018-11-06T03:10:46.560Z,72.50
2018-11-06T03:13:20.236Z,72.30
2018-11-06T03:15:53.765Z,71.50
2018-11-06T03:18:27.241Z,71.80
2018-11-06T03:21:00.877Z,71.10
2018-11-06T03:23:34.437Z,70.30
2018-11-06T03:26:08.047Z,70.20
2018-11-06T03:28:41.637Z,70.40
2018-11-06T03:31:15.010Z,70.60
2018-11-06T03:33:48.640Z,70.50
2018-11-06T03:36:22.253Z,70.40
2018-11-06T03:38:55.827Z,70.70
2018-11-06T03:41:29.383Z,70.60
2018-11-06T03:44:02.875Z,70.10
2018-11-06T03:46:36.364Z,70.30
2018-11-06T03:49:10.715Z,70.10
2018-11-06T03:51:44.290Z,69.90
2018-11-06T03:54:17.738Z,69.90
2018-11-06T03:56:51.229Z,70.30
2018-11-06T03:59:24.721Z,70.30
2018-11-06T04:01:58.339Z,70.70
2018-11-06T04:04:31.928Z,69.70
2018-11-06T04:07:05.650Z,69.80
2018-11-06T04:09:39.221Z,70.00
2018-11-06T04:12:12.841Z,70.10
2018-11-06T04:14:46.420Z,70.00
2018-11-06T04:17:19.782Z,69.50
2018-11-06T04:19:53.417Z,69.20
2018-11-06T04:22:27.080Z,69.20
2018-11-06T04:25:00.671Z,69.20
2018-11-06T04:27:34.339Z,69.20
2018-11-06T04:30:09.314Z,68.90
2018-11-06T04:32:43.392Z,68.80
2018-11-06T04:35:17.017Z,68.80
2018-11-06T04:37:50.582Z,68.80
2018-11-06T04:40:24.136Z,68.60
2018-11-06T04:42:57.706Z,68.60
2018-11-06T04:45:31.329Z,68.50
2018-11-06T04:48:05.370Z,68.60
2018-11-06T04:50:38.746Z,68.90
2018-11-06T04:53:12.117Z,68.50
2018-11-06T04:55:45.634Z,68.40
2018-11-06T04:58:19.032Z,68.60
2018-11-06T05:00:52.590Z,68.50
2018-11-06T05:03:26.178Z,68.80
2018-11-06T05:05:59.569Z,68.20
2018-11-06T05:08:33.274Z,68.30
2018-11-06T05:11:06.911Z,67.90
2018-11-06T05:13:41.301Z,67.90
2018-11-06T05:16:14.853Z,68.20
2018-11-06T05:18:48.247Z,68.00
2018-11-06T05:21:21.520Z,68.00
2018-11-06T05:23:55.153Z,67.90
2018-11-06T05:26:28.712Z,68.20
2018-11-06T05:29:02.112Z,68.40
2018-11-06T05:31:35.572Z,68.40
2018-11-06T05:34:09.221Z,68.10
2018-11-06T05:36:42.536Z,68.20
2018-11-06T05:39:16.007Z,68.10
2018-11-06T05:41:49.497Z,67.70
2018-11-06T05:44:23.085Z,68.00
2018-11-06T05:46:56.448Z,68.50
2018-11-06T05:49:29.934Z,69.10
2018-11-06T05:52:03.498Z,69.00
2018-11-06T05:54:37.145Z,69.30
2018-11-06T05:57:10.511Z,69.70
2018-11-06T05:59:44.342Z,69.60
2018-11-06T06:02:17.619Z,68.90
2018-11-06T06:04:51.024Z,69.30
2018-11-06T06:07:24.885Z,69.10
2018-11-06T06:09:58.400Z,69.30
2018-11-06T06:12:32.020Z,69.70
2018-11-06T06:15:06.520Z,69.60
2018-11-06T06:17:40.082Z,69.20
2018-11-06T06:20:13.513Z,69.00
2018-11-06T06:22:47.062Z,69.00
2018-11-06T06:25:20.733Z,69.30
2018-11-06T06:27:54.314Z,69.50
2018-11-06T06:30:27.684Z,69.80
2018-11-06T06:33:01.255Z,69.70
2018-11-06T06:35:34.805Z,70.30
2018-11-06T06:38:08.131Z,70.30
2018-11-06T06:40:41.609Z,70.40
2018-11-06T06:43:14.993Z,70.80
2018-11-06T06:45:48.468Z,70.70
2018-11-06T06:48:21.842Z,70.80
2018-11-06T06:50:55.433Z,70.90
2018-11-06T06:53:28.933Z,70.90
2018-11-06T06:56:02.379Z,70.80
2018-11-06T06:58:37.435Z,70.90
2018-11-06T07:01:10.755Z,71.00
2018-11-06T07:03:44.173Z,71.80
2018-11-06T07:06:17.595Z,71.60
2018-11-06T07:08:51.099Z,71.90
2018-11-06T07:11:24.557Z,72.20
2018-11-06T07:13:58.110Z,72.40
2018-11-06T07:16:31.623Z,72.40
2018-11-06T07:19:05.249Z,72.50
2018-11-06T07:21:38.804Z,72.80
2018-11-06T07:24:12.369Z,72.70
2018-11-06T07:26:45.997Z,73.00
2018-11-06T07:29:19.545Z,73.20
2018-11-06T07:31:53.032Z,73.60
2018-11-06T07:34:26.580Z,73.90
2018-11-06T07:37:00.106Z,74.00
2018-11-06T07:39:33.519Z,74.20
2018-11-06T07:42:07.116Z,74.70
2018-11-06T07:44:41.427Z,74.80
2018-11-06T07:47:14.984Z,75.10
2018-11-06T07:49:49.527Z,75.40
2018-11-06T07:52:23.208Z,76.30
2018-11-06T07:54:56.789Z,76.90
2018-11-06T07:57:30.403Z,76.70
2018-11-06T08:00:06.570Z,76.90
2018-11-06T08:02:40.051Z,77.20
2018-11-06T08:05:14.036Z,77.50
2018-11-06T08:07:48.422Z,77.40
2018-11-06T08:10:22.444Z,77.80
2018-11-06T08:12:55.933Z,78.40
2018-11-06T08:15:29.495Z,78.30
2018-11-06T08:18:03.199Z,78.40
2018-11-06T08:20:36.840Z,79.10
2018-11-06T08:23:10.195Z,80.30
2018-11-06T08:25:43.806Z,81.10
2018-11-06T08:28:17.295Z,81.40
2018-11-06T08:30:50.871Z,81.10
2018-11-06T08:33:24.337Z,80.60
2018-11-06T08:35:58.022Z,80.70
2018-11-06T08:38:31.447Z,81.00
2018-11-06T08:41:05.017Z,81.10
2018-11-06T08:43:38.418Z,81.40
2018-11-06T08:46:12.058Z,81.40
2018-11-06T08:48:45.535Z,82.30
2018-11-06T08:51:18.953Z,82.10
2018-11-06T08:53:52.419Z,82.00
2018-11-06T08:56:26.033Z,82.30
2018-11-06T08:58:59.656Z,82.10
2018-11-06T09:01:33.272Z,82.20
2018-11-06T09:04:06.741Z,82.50
2018-11-06T09:06:40.184Z,82.20
2018-11-06T09:09:13.581Z,82.10
2018-11-06T09:11:46.928Z,82.30
2018-11-06T09:14:20.366Z,82.40
2018-11-06T09:16:53.959Z,82.40
2018-11-06T09:19:27.676Z,82.30
2018-11-06T09:22:01.070Z,82.00
2018-11-06T09:24:34.571Z,81.80
2018-11-06T09:27:08.132Z,81.80
2018-11-06T09:29:41.617Z,81.50
2018-11-06T09:32:14.967Z,81.50
2018-11-06T09:34:48.357Z,81.50
2018-11-06T09:37:21.819Z,81.40
2018-11-06T09:39:55.399Z,81.10
2018-11-06T09:42:28.944Z,81.20
2018-11-06T09:45:02.771Z,81.40
2018-11-06T09:47:36.281Z,81.70
2018-11-06T09:50:12.128Z,80.70
2018-11-06T09:52:46.258Z,80.80
2018-11-06T09:55:19.828Z,81.00
2018-11-06T09:57:53.380Z,81.50
2018-11-06T10:00:27.000Z,81.50
2018-11-06T10:03:00.329Z,81.90
2018-11-06T10:05:33.762Z,81.20
2018-11-06T10:08:07.214Z,82.00
2018-11-06T10:10:40.595Z,81.70
2018-11-06T10:13:14.142Z,81.50
2018-11-06T10:15:47.665Z,81.60
2018-11-06T10:18:21.192Z,81.10
2018-11-06T10:20:54.784Z,81.40
2018-11-06T10:23:28.284Z,81.40
2018-11-06T10:26:01.925Z,81.00
2018-11-06T10:28:35.500Z,80.80
2018-11-06T10:31:09.087Z,81.30
2018-11-06T10:33:42.668Z,81.30
2018-11-06T10:36:16.221Z,81.20
2018-11-06T10:38:49.821Z,81.20
2018-11-06T10:41:23.326Z,80.50
2018-11-06T10:43:57.003Z,80.10
2018-11-06T10:46:30.556Z,80.10
2018-11-06T10:49:04.414Z,79.70
2018-11-06T10:51:37.953Z,80.00
2018-11-06T10:54:11.325Z,79.70
2018-11-06T10:56:44.809Z,79.60
2018-11-06T10:59:18.427Z,79.50
2018-11-06T11:01:57.572Z,79.30
2018-11-06T11:04:31.558Z,79.40
2018-11-06T11:07:05.365Z,79.30
2018-11-06T11:09:38.994Z,79.10
2018-11-06T11:12:12.414Z,79.10
2018-11-06T11:14:46.014Z,79.20
2018-11-06T11:17:19.358Z,79.30
2018-11-06T11:19:52.726Z,78.90
2018-11-06T11:22:26.285Z,78.60
2018-11-06T11:24:59.630Z,78.40
2018-11-06T11:27:33.049Z,78.00
2018-11-06T11:30:08.482Z,78.00
2018-11-06T11:32:43.503Z,77.90
2018-11-06T11:35:16.938Z,77.80
2018-11-06T11:37:50.732Z,77.70
2018-11-06T11:40:24.084Z,77.70
2018-11-06T11:42:57.524Z,77.50
2018-11-06T11:45:31.130Z,77.20
2018-11-06T11:48:04.706Z,77.10
2018-11-06T11:50:38.021Z,77.10
2018-11-06T11:53:11.405Z,77.10
2018-11-06T11:55:44.924Z,77.10
2018-11-06T11:58:18.336Z,77.30
2018-11-06T12:00:51.813Z,77.30
2018-11-06T12:03:25.289Z,77.30
2018-11-06T12:05:58.788Z,77.10
2018-11-06T12:08:32.188Z,77.00
2018-11-06T12:11:05.634Z,76.80
2018-11-06T12:13:39.189Z,77.00
2018-11-06T12:16:12.705Z,76.90
2018-11-06T12:18:46.240Z,77.00
2018-11-06T12:21:19.539Z,77.10
2018-11-06T12:23:53.096Z,76.90
2018-11-06T12:26:26.696Z,76.80
2018-11-06T12:29:00.217Z,76.80
2018-11-06T12:31:33.767Z,76.80
2018-11-06T12:34:07.243Z,76.70
2018-11-06T12:36:40.794Z,76.50
2018-11-06T12:39:14.064Z,76.40
2018-11-06T12:41:47.569Z,76.40
2018-11-06T12:44:20.849Z,76.40
2018-11-06T12:46:54.445Z,76.40
2018-11-06T12:49:27.985Z,76.50
2018-11-06T12:52:01.352Z,76.50
2018-11-06T12:54:34.781Z,76.60
2018-11-06T12:57:08.237Z,76.40
2018-11-06T12:59:41.913Z,76.00
2018-11-06T13:02:15.472Z,76.10
2018-11-06T13:04:48.908Z,76.10
2018-11-06T13:07:22.308Z,76.20
2018-11-06T13:09:55.883Z,76.10
2018-11-06T13:12:29.229Z,76.10
2018-11-06T13:15:02.586Z,75.90
2018-11-06T13:17:36.551Z,75.70
2018-11-06T13:20:12.642Z,75.90
2018-11-06T13:22:46.235Z,75.40
2018-11-06T13:25:19.856Z,75.40
2018-11-06T13:27:53.499Z,75.80
2018-11-06T13:30:27.235Z,75.50
2018-11-06T13:33:00.679Z,75.90
2018-11-06T13:35:34.364Z,75.90
2018-11-06T13:38:07.659Z,75.80
2018-11-06T13:40:41.015Z,75.70
2018-11-06T13:43:14.430Z,75.60
2018-11-06T13:45:47.958Z,75.50
2018-11-06T13:48:21.481Z,75.40
2018-11-06T13:50:54.971Z,75.30
2018-11-06T13:53:28.387Z,75.30
2018-11-06T13:56:01.922Z,75.00
2018-11-06T13:58:35.432Z,75.10
2018-11-06T14:01:08.684Z,75.10
2018-11-06T14:03:42.217Z,74.80
2018-11-06T14:06:15.664Z,74.80
2018-11-06T14:08:49.229Z,74.80
2018-11-06T14:11:22.613Z,75.00
2018-11-06T14:13:55.982Z,74.80
2018-11-06T14:16:29.344Z,75.00
2018-11-06T14:19:02.936Z,74.90
2018-11-06T14:21:36.505Z,74.90
2018-11-06T14:24:10.126Z,75.40
2018-11-06T14:26:43.769Z,74.50
2018-11-06T14:29:17.390Z,74.60
2018-11-06T14:31:50.983Z,74.90
2018-11-06T14:34:24.488Z,75.10
2018-11-06T14:36:58.074Z,74.60
2018-11-06T14:39:31.491Z,75.10
2018-11-06T14:42:05.174Z,75.00
2018-11-06T14:44:38.616Z,75.00
2018-11-06T14:47:12.154Z,75.10
2018-11-06T14:49:45.641Z,75.20
2018-11-06T14:52:18.986Z,74.60
2018-11-06T14:54:52.531Z,75.30
2018-11-06T14:57:25.952Z,75.20
2018-11-06T14:59:59.542Z,75.50
2018-11-06T15:02:32.928Z,76.10
2018-11-06T15:05:06.437Z,76.30
2018-11-06T15:07:40.028Z,76.60
2018-11-06T15:10:14.110Z,76.90
2018-11-06T15:12:47.690Z,76.90
2018-11-06T15:15:21.048Z,77.00
2018-11-06T15:17:54.656Z,76.90
2018-11-06T15:20:28.370Z,77.20
2018-11-06T15:23:01.856Z,77.20
2018-11-06T15:25:35.337Z,77.30
2018-11-06T15:28:08.856Z,77.20
2018-11-06T15:30:42.433Z,77.80
2018-11-06T15:33:15.936Z,77.90
2018-11-06T15:35:49.288Z,77.50
2018-11-06T15:38:22.753Z,78.10
2018-11-06T15:40:56.290Z,78.10
2018-11-06T15:43:29.890Z,78.00
2018-11-06T15:46:04.129Z,78.00
2018-11-06T15:48:37.628Z,77.90
2018-11-06T15:51:11.172Z,78.00
2018-11-06T15:53:44.625Z,78.40
2018-11-06T15:56:18.028Z,78.30
2018-11-06T15:58:52.107Z,78.30
2018-11-06T16:01:26.481Z,78.30
2018-11-06T16:03:59.849Z,78.10
2018-11-06T16:06:33.327Z,77.90
2018-11-06T16:09:07.037Z,78.20
2018-11-06T16:11:40.517Z,77.60
2018-11-06T16:14:13.936Z,77.70
2018-11-06T16:16:47.438Z,77.60
2018-11-06T16:19:20.952Z,77.60
2018-11-06T16:21:54.478Z,77.50
2018-11-06T16:24:27.953Z,77.30
2018-11-06T16:27:01.313Z,77.60
2018-11-06T16:29:34.795Z,77.20
2018-11-06T16:32:08.261Z,76.80
2018-11-06T16:34:41.821Z,76.90
2018-11-06T16:37:15.296Z,76.60
2018-11-06T16:39:48.815Z,76.80
2018-11-06T16:42:22.341Z,76.70
2018-11-06T16:44:56.686Z,76.50
2018-11-06T16:47:30.112Z,76.70
2018-11-06T16:50:04.328Z,76.50
2018-11-06T16:52:37.982Z,76.40
2018-11-06T16:55:11.739Z,76.20
2018-11-06T16:57:45.539Z,75.90
2018-11-06T17:00:21.633Z,76.10
2018-11-06T17:02:54.932Z,76.20
2018-11-06T17:05:28.506Z,76.00
2018-11-06T17:08:01.970Z,75.70
2018-11-06T17:10:35.416Z,75.60
2018-11-06T17:13:08.819Z,75.80
2018-11-06T17:15:42.157Z,75.70
2018-11-06T17:18:16.213Z,75.40
2018-11-06T17:20:49.661Z,75.70
2018-11-06T17:23:23.887Z,75.50
2018-11-06T17:25:57.529Z,75.40
2018-11-06T17:28:31.102Z,75.10
2018-11-06T17:31:04.750Z,75.20
2018-11-06T17:33:38.212Z,74.80
2018-11-06T17:36:11.733Z,75.10
2018-11-06T17:38:45.763Z,75.40
2018-11-06T17:41:19.445Z,75.20
2018-11-06T17:43:52.930Z,75.00
2018-11-06T17:46:26.337Z,75.00
2018-11-06T17:48:59.745Z,74.90
2018-11-06T17:51:33.176Z,74.80
2018-11-06T17:54:06.736Z,74.80
2018-11-06T17:56:40.253Z,74.70
2018-11-06T17:59:14.128Z,75.50
2018-11-06T18:01:47.619Z,74.70
2018-11-06T18:04:21.374Z,75.00
2018-11-06T18:06:54.744Z,74.90
2018-11-06T18:09:28.390Z,74.60
2018-11-06T18:12:02.073Z,74.70
2018-11-06T18:14:35.622Z,74.60
2018-11-06T18:17:09.166Z,74.70
2018-11-06T18:19:42.464Z,74.40
2018-11-06T18:22:15.896Z,74.40
2018-11-06T18:24:49.334Z,74.40
2018-11-06T18:27:22.875Z,74.50
2018-11-06T18:29:56.286Z,74.20
2018-11-06T18:32:29.861Z,74.00
2018-11-06T18:35:03.822Z,73.90
2018-11-06T18:37:37.424Z,73.70
2018-11-06T18:40:14.915Z,73.80
2018-11-06T18:42:49.312Z,73.70
2018-11-06T18:45:22.861Z,73.70
2018-11-06T18:47:56.426Z,73.60
2018-11-06T18:50:29.749Z,73.70
2018-11-06T18:53:03.364Z,73.60
2018-11-06T18:55:36.941Z,73.50
2018-11-06T18:58:10.569Z,73.60
2018-11-06T19:00:44.142Z,73.20
2018-11-06T19:03:17.701Z,73.10
2018-11-06T19:05:51.274Z,73.10
2018-11-06T19:08:24.997Z,73.20
2018-11-06T19:10:58.560Z,73.20
2018-11-06T19:13:31.967Z,72.70
2018-11-06T19:16:05.885Z,73.10
2018-11-06T19:18:39.431Z,72.50
2018-11-06T19:21:12.921Z,73.00
2018-11-06T19:23:46.432Z,72.80
2018-11-06T19:26:19.877Z,72.60
2018-11-06T19:28:53.456Z,71.90
2018-11-06T19:31:26.889Z,72.30
2018-11-06T19:34:00.241Z,72.00
2018-11-06T19:36:33.622Z,72.30
2018-11-06T19:39:08.937Z,72.20
2018-11-06T19:41:42.387Z,72.30
2018-11-06T19:44:15.978Z,72.60
2018-11-06T19:46:49.501Z,72.70
2018-11-06T19:49:22.959Z,72.00
2018-11-06T19:51:56.405Z,73.10
2018-11-06T19:54:29.948Z,72.90
2018-11-06T19:57:03.396Z,73.00
2018-11-06T19:59:36.966Z,73.20
2018-11-06T20:02:10.450Z,73.70
2018-11-06T20:04:37.743Z,74.10
2018-11-06T20:07:05.001Z,75.10
2018-11-06T20:09:32.293Z,75.50
2018-11-06T20:12:05.625Z,75.50
2018-11-06T20:14:39.032Z,75.90
2018-11-06T20:17:12.416Z,76.20
2018-11-06T20:19:45.808Z,76.00
2018-11-06T20:22:19.193Z,75.70
2018-11-06T20:24:52.754Z,75.90
2018-11-06T20:27:26.250Z,75.80
2018-11-06T20:29:59.849Z,76.40
2018-11-06T20:32:33.234Z,76.30
2018-11-06T20:35:07.688Z,76.20
2018-11-06T20:37:41.256Z,76.30
2018-11-06T20:40:17.996Z,76.50
2018-11-06T20:42:51.476Z,76.80
2018-11-06T20:45:24.771Z,76.70
2018-11-06T20:47:58.124Z,77.10
2018-11-06T20:50:31.614Z,77.10
2018-11-06T20:53:05.128Z,77.20
2018-11-06T20:55:38.408Z,77.40
2018-11-06T20:58:14.126Z,77.10
2018-11-06T21:00:47.496Z,77.30
2018-11-06T21:06:07.555Z,77.30
2018-11-06T21:08:40.885Z,77.10
2018-11-06T21:11:14.554Z,77.30
2018-11-06T21:13:48.169Z,77.20
2018-11-06T21:16:21.792Z,77.00
2018-11-06T21:18:55.240Z,77.00
2018-11-06T21:21:28.821Z,77.10
2018-11-06T21:24:02.245Z,77.20
2018-11-06T21:26:36.780Z,77.70
2018-11-06T21:29:10.187Z,77.20
2018-11-06T21:31:43.760Z,77.50
2018-11-06T21:34:17.278Z,77.60
2018-11-06T21:36:50.638Z,77.70
2018-11-06T21:39:24.069Z,77.50
2018-11-06T21:41:57.831Z,77.10
2018-11-06T21:44:31.220Z,77.20
2018-11-06T21:47:04.681Z,77.50
2018-11-06T21:49:38.098Z,77.00
2018-11-06T21:52:11.612Z,76.90
2018-11-06T21:54:45.180Z,77.10
2018-11-06T21:57:18.519Z,77.10
2018-11-06T21:59:51.845Z,77.40
2018-11-06T22:02:25.189Z,77.20
2018-11-06T22:04:58.650Z,77.10
2018-11-06T22:07:32.181Z,77.20
2018-11-06T22:10:06.797Z,77.60
2018-11-06T22:12:40.990Z,76.80
2018-11-06T22:15:15.522Z,76.90
2018-11-06T22:17:48.952Z,76.80
2018-11-06T22:20:22.971Z,76.50
2018-11-06T22:22:57.228Z,75.90
2018-11-06T22:25:30.545Z,75.90
2018-11-06T22:28:04.400Z,75.90
2018-11-06T22:30:37.840Z,75.40
2018-11-06T22:33:11.255Z,75.50
2018-11-06T22:35:44.744Z,75.40
2018-11-06T22:38:18.092Z,75.40
2018-11-06T22:40:51.553Z,75.00
2018-11-06T22:43:24.979Z,75.60
2018-11-06T22:45:58.376Z,76.20
2018-11-06T22:48:31.787Z,76.30
2018-11-06T22:51:05.621Z,76.40
2018-11-06T22:53:39.066Z,76.60
2018-11-06T22:56:12.578Z,76.70
2018-11-06T22:58:46.124Z,76.70
2018-11-06T23:01:24.240Z,76.70
2018-11-06T23:03:57.581Z,77.20
2018-11-06T23:06:31.140Z,77.10
2018-11-06T23:09:07.091Z,77.50
2018-11-06T23:11:40.448Z,77.90
2018-11-06T23:14:13.853Z,77.80
2018-11-06T23:16:47.294Z,78.00
2018-11-06T23:19:20.709Z,78.20
2018-11-06T23:21:54.190Z,78.30
2018-11-06T23:24:27.705Z,78.40
2018-11-06T23:27:01.136Z,78.40
2018-11-06T23:29:34.567Z,78.20
2018-11-06T23:32:07.899Z,78.10
2018-11-06T23:34:41.313Z,78.00
2018-11-06T23:37:14.677Z,77.80
2018-11-06T23:39:48.063Z,77.90
2018-11-06T23:42:21.545Z,77.80
2018-11-06T23:44:55.030Z,77.60
2018-11-06T23:47:28.616Z,77.60
2018-11-06T23:50:02.397Z,77.60
2018-11-06T23:52:35.683Z,77.70
2018-11-06T23:55:09.484Z,78.10
2018-11-06T23:57:43.028Z,78.20
